sensor_id;sensor_type;location;lat;lon;timestamp;P1;durP1;ratioP1;P2;durP2;ratioP2
3259;SDS011;22469;48.150;14.004;2022-12-18T00:03:55;93.43;;;42.70;;
3259;SDS011;22469;48.150;14.004;2022-12-18T00:06:24;102.47;;;48.00;;
3259;SDS011;22469;48.150;14.004;2022-12-18T00:08:55;108.83;;;48.90;;
3259;SDS011;22469;48.150;14.004;2022-12-18T00:11:24;87.17;;;41.90;;
3259;SDS011;22469;48.150;14.004;2022-12-18T00:13:55;82.97;;;41.33;;
3259;SDS011;22469;48.150;14.004;2022-12-18T00:16:25;78.83;;;39.50;;
3259;SDS011;22469;48.150;14.004;2022-12-18T00:18:56;80.30;;;40.47;;
3259;SDS011;22469;48.150;14.004;2022-12-18T00:21:26;101.63;;;45.37;;
3259;SDS011;22469;48.150;14.004;2022-12-18T00:23:55;103.17;;;47.07;;
3259;SDS011;22469;48.150;14.004;2022-12-18T00:26:24;126.47;;;49.80;;
3259;SDS011;22469;48.150;14.004;2022-12-18T00:29:07;121.33;;;53.00;;
3259;SDS011;22469;48.150;14.004;2022-12-18T00:31:40;102.30;;;47.20;;
3259;SDS011;22469;48.150;14.004;2022-12-18T00:34:10;98.13;;;44.90;;
3259;SDS011;22469;48.150;14.004;2022-12-18T00:36:39;113.20;;;50.10;;
3259;SDS011;22469;48.150;14.004;2022-12-18T00:39:08;108.90;;;50.10;;
3259;SDS011;22469;48.150;14.004;2022-12-18T00:41:39;116.63;;;51.07;;
3259;SDS011;22469;48.150;14.004;2022-12-18T00:44:24;106.17;;;46.83;;
3259;SDS011;22469;48.150;14.004;2022-12-18T00:46:51;116.07;;;43.77;;
3259;SDS011;22469;48.150;14.004;2022-12-18T00:49:19;110.50;;;43.13;;
3259;SDS011;22469;48.150;14.004;2022-12-18T00:51:47;97.77;;;39.97;;
3259;SDS011;22469;48.150;14.004;2022-12-18T00:54:14;87.13;;;40.93;;
3259;SDS011;22469;48.150;14.004;2022-12-18T00:56:42;99.63;;;40.50;;
3259;SDS011;22469;48.150;14.004;2022-12-18T00:59:15;105.10;;;43.60;;
3259;SDS011;22469;48.150;14.004;2022-12-18T01:01:44;85.20;;;38.67;;
3259;SDS011;22469;48.150;14.004;2022-12-18T01:04:12;100.77;;;43.80;;
3259;SDS011;22469;48.150;14.004;2022-12-18T01:06:40;92.07;;;40.63;;
3259;SDS011;22469;48.150;14.004;2022-12-18T01:09:07;96.30;;;41.80;;
3259;SDS011;22469;48.150;14.004;2022-12-18T01:11:34;80.73;;;38.10;;
3259;SDS011;22469;48.150;14.004;2022-12-18T01:14:01;88.30;;;39.37;;
3259;SDS011;22469;48.150;14.004;2022-12-18T01:16:28;111.63;;;41.33;;
3259;SDS011;22469;48.150;14.004;2022-12-18T01:18:55;99.43;;;40.87;;
3259;SDS011;22469;48.150;14.004;2022-12-18T01:21:23;93.63;;;41.27;;
3259;SDS011;22469;48.150;14.004;2022-12-18T01:23:51;87.73;;;39.13;;
3259;SDS011;22469;48.150;14.004;2022-12-18T01:26:21;96.23;;;42.30;;
3259;SDS011;22469;48.150;14.004;2022-12-18T01:28:49;96.70;;;41.67;;
3259;SDS011;22469;48.150;14.004;2022-12-18T01:31:26;99.03;;;43.23;;
3259;SDS011;22469;48.150;14.004;2022-12-18T01:33:56;90.57;;;42.93;;
3259;SDS011;22469;48.150;14.004;2022-12-18T01:36:27;95.80;;;41.43;;
3259;SDS011;22469;48.150;14.004;2022-12-18T01:39:03;102.37;;;42.07;;
3259;SDS011;22469;48.150;14.004;2022-12-18T01:41:33;90.40;;;42.90;;
3259;SDS011;22469;48.150;14.004;2022-12-18T01:47:36;85.60;;;38.67;;
3259;SDS011;22469;48.150;14.004;2022-12-18T01:52:57;106.20;;;43.47;;
3259;SDS011;22469;48.150;14.004;2022-12-18T01:58:17;121.63;;;43.07;;
3259;SDS011;22469;48.150;14.004;2022-12-18T02:00:48;95.23;;;38.97;;
3259;SDS011;22469;48.150;14.004;2022-12-18T02:03:15;99.97;;;38.87;;
3259;SDS011;22469;48.150;14.004;2022-12-18T02:08:32;108.67;;;37.80;;
3259;SDS011;22469;48.150;14.004;2022-12-18T02:14:14;96.37;;;34.80;;
3259;SDS011;22469;48.150;14.004;2022-12-18T02:16:54;95.93;;;35.40;;
3259;SDS011;22469;48.150;14.004;2022-12-18T02:23:01;107.47;;;39.93;;
3259;SDS011;22469;48.150;14.004;2022-12-18T02:29:13;99.17;;;39.07;;
3259;SDS011;22469;48.150;14.004;2022-12-18T02:31:53;91.47;;;35.60;;
3259;SDS011;22469;48.150;14.004;2022-12-18T02:34:28;97.77;;;38.70;;
3259;SDS011;22469;48.150;14.004;2022-12-18T02:36:58;80.77;;;36.60;;
3259;SDS011;22469;48.150;14.004;2022-12-18T02:39:30;90.50;;;36.10;;
3259;SDS011;22469;48.150;14.004;2022-12-18T02:42:00;95.53;;;42.30;;
3259;SDS011;22469;48.150;14.004;2022-12-18T02:44:34;111.17;;;40.83;;
3259;SDS011;22469;48.150;14.004;2022-12-18T02:47:13;95.63;;;38.83;;
3259;SDS011;22469;48.150;14.004;2022-12-18T03:04:20;103.33;;;38.20;;
3259;SDS011;22469;48.150;14.004;2022-12-18T03:07:15;90.60;;;36.00;;
3259;SDS011;22469;48.150;14.004;2022-12-18T03:09:52;93.50;;;37.73;;
3259;SDS011;22469;48.150;14.004;2022-12-18T03:12:24;94.53;;;35.27;;
3259;SDS011;22469;48.150;14.004;2022-12-18T03:15:11;78.47;;;38.77;;
3259;SDS011;22469;48.150;14.004;2022-12-18T03:17:48;101.17;;;37.20;;
3259;SDS011;22469;48.150;14.004;2022-12-18T03:20:23;97.90;;;36.77;;
3259;SDS011;22469;48.150;14.004;2022-12-18T03:22:55;101.83;;;33.43;;
3259;SDS011;22469;48.150;14.004;2022-12-18T03:25:31;92.93;;;33.97;;
3259;SDS011;22469;48.150;14.004;2022-12-18T03:28:01;77.27;;;32.47;;
3259;SDS011;22469;48.150;14.004;2022-12-18T03:30:32;88.60;;;33.33;;
3259;SDS011;22469;48.150;14.004;2022-12-18T03:33:15;86.20;;;32.87;;
3259;SDS011;22469;48.150;14.004;2022-12-18T03:35:48;85.87;;;35.57;;
3259;SDS011;22469;48.150;14.004;2022-12-18T03:38:15;84.47;;;35.00;;
3259;SDS011;22469;48.150;14.004;2022-12-18T03:43:40;75.27;;;31.17;;
3259;SDS011;22469;48.150;14.004;2022-12-18T03:49:46;69.53;;;27.30;;
3259;SDS011;22469;48.150;14.004;2022-12-18T03:52:30;67.83;;;31.57;;
3259;SDS011;22469;48.150;14.004;2022-12-18T03:55:05;81.90;;;31.77;;
3259;SDS011;22469;48.150;14.004;2022-12-18T03:57:35;54.53;;;25.07;;
3259;SDS011;22469;48.150;14.004;2022-12-18T04:00:14;69.53;;;32.30;;
3259;SDS011;22469;48.150;14.004;2022-12-18T04:02:45;56.27;;;26.43;;
3259;SDS011;22469;48.150;14.004;2022-12-18T04:05:19;73.73;;;34.43;;
3259;SDS011;22469;48.150;14.004;2022-12-18T04:07:48;79.60;;;34.90;;
3259;SDS011;22469;48.150;14.004;2022-12-18T04:10:18;69.63;;;31.37;;
3259;SDS011;22469;48.150;14.004;2022-12-18T04:12:48;79.57;;;28.43;;
3259;SDS011;22469;48.150;14.004;2022-12-18T04:15:15;75.40;;;32.97;;
3259;SDS011;22469;48.150;14.004;2022-12-18T04:17:48;76.00;;;35.00;;
3259;SDS011;22469;48.150;14.004;2022-12-18T04:20:17;59.73;;;27.50;;
3259;SDS011;22469;48.150;14.004;2022-12-18T04:22:44;80.83;;;34.83;;
3259;SDS011;22469;48.150;14.004;2022-12-18T04:25:12;71.37;;;32.60;;
3259;SDS011;22469;48.150;14.004;2022-12-18T04:27:39;78.20;;;33.90;;
3259;SDS011;22469;48.150;14.004;2022-12-18T04:30:06;78.50;;;30.27;;
3259;SDS011;22469;48.150;14.004;2022-12-18T04:32:34;71.20;;;33.00;;
3259;SDS011;22469;48.150;14.004;2022-12-18T04:35:02;56.43;;;26.60;;
3259;SDS011;22469;48.150;14.004;2022-12-18T04:37:30;69.47;;;31.37;;
3259;SDS011;22469;48.150;14.004;2022-12-18T04:39:57;75.70;;;33.37;;
3259;SDS011;22469;48.150;14.004;2022-12-18T04:42:24;62.23;;;26.70;;
3259;SDS011;22469;48.150;14.004;2022-12-18T04:44:51;65.33;;;31.10;;
3259;SDS011;22469;48.150;14.004;2022-12-18T04:47:18;70.80;;;32.50;;
3259;SDS011;22469;48.150;14.004;2022-12-18T04:49:45;88.10;;;32.83;;
3259;SDS011;22469;48.150;14.004;2022-12-18T04:52:12;98.77;;;39.07;;
3259;SDS011;22469;48.150;14.004;2022-12-18T04:54:39;69.77;;;29.80;;
3259;SDS011;22469;48.150;14.004;2022-12-18T04:57:06;67.50;;;27.07;;
3259;SDS011;22469;48.150;14.004;2022-12-18T04:59:33;70.37;;;29.90;;
3259;SDS011;22469;48.150;14.004;2022-12-18T05:02:00;78.43;;;34.20;;
3259;SDS011;22469;48.150;14.004;2022-12-18T05:04:27;87.97;;;34.93;;
3259;SDS011;22469;48.150;14.004;2022-12-18T05:06:54;85.37;;;31.17;;
3259;SDS011;22469;48.150;14.004;2022-12-18T05:09:21;76.07;;;31.03;;
3259;SDS011;22469;48.150;14.004;2022-12-18T05:11:48;75.07;;;33.70;;
3259;SDS011;22469;48.150;14.004;2022-12-18T05:14:16;88.27;;;32.57;;
3259;SDS011;22469;48.150;14.004;2022-12-18T05:16:43;81.07;;;31.73;;
3259;SDS011;22469;48.150;14.004;2022-12-18T05:19:11;102.10;;;36.30;;
3259;SDS011;22469;48.150;14.004;2022-12-18T05:21:38;96.13;;;36.63;;
3259;SDS011;22469;48.150;14.004;2022-12-18T05:24:05;92.47;;;34.80;;
3259;SDS011;22469;48.150;14.004;2022-12-18T05:26:32;121.27;;;42.00;;
3259;SDS011;22469;48.150;14.004;2022-12-18T05:28:59;77.60;;;30.97;;
3259;SDS011;22469;48.150;14.004;2022-12-18T05:31:26;110.60;;;37.27;;
3259;SDS011;22469;48.150;14.004;2022-12-18T05:33:54;91.53;;;35.03;;
3259;SDS011;22469;48.150;14.004;2022-12-18T05:36:21;94.70;;;35.43;;
3259;SDS011;22469;48.150;14.004;2022-12-18T05:38:48;79.97;;;33.90;;
3259;SDS011;22469;48.150;14.004;2022-12-18T05:41:15;80.90;;;30.90;;
3259;SDS011;22469;48.150;14.004;2022-12-18T05:43:42;72.10;;;32.10;;
3259;SDS011;22469;48.150;14.004;2022-12-18T05:46:11;86.07;;;34.00;;
3259;SDS011;22469;48.150;14.004;2022-12-18T05:48:42;82.90;;;32.00;;
3259;SDS011;22469;48.150;14.004;2022-12-18T05:51:11;82.10;;;32.60;;
3259;SDS011;22469;48.150;14.004;2022-12-18T05:53:41;71.00;;;29.20;;
3259;SDS011;22469;48.150;14.004;2022-12-18T05:56:11;78.63;;;33.50;;
3259;SDS011;22469;48.150;14.004;2022-12-18T05:58:42;89.70;;;36.20;;
3259;SDS011;22469;48.150;14.004;2022-12-18T06:01:11;98.47;;;35.83;;
3259;SDS011;22469;48.150;14.004;2022-12-18T06:03:44;77.83;;;31.87;;
3259;SDS011;22469;48.150;14.004;2022-12-18T06:06:17;87.50;;;35.80;;
3259;SDS011;22469;48.150;14.004;2022-12-18T06:08:53;91.33;;;36.30;;
3259;SDS011;22469;48.150;14.004;2022-12-18T06:11:22;81.33;;;34.30;;
3259;SDS011;22469;48.150;14.004;2022-12-18T06:13:52;92.33;;;35.60;;
3259;SDS011;22469;48.150;14.004;2022-12-18T06:16:24;100.60;;;36.77;;
3259;SDS011;22469;48.150;14.004;2022-12-18T06:18:55;97.63;;;37.07;;
3259;SDS011;22469;48.150;14.004;2022-12-18T06:21:27;77.87;;;31.70;;
3259;SDS011;22469;48.150;14.004;2022-12-18T06:23:57;94.33;;;35.83;;
3259;SDS011;22469;48.150;14.004;2022-12-18T06:26:25;79.20;;;33.63;;
3259;SDS011;22469;48.150;14.004;2022-12-18T06:28:54;76.53;;;29.90;;
3259;SDS011;22469;48.150;14.004;2022-12-18T06:31:21;91.50;;;32.80;;
3259;SDS011;22469;48.150;14.004;2022-12-18T06:33:48;86.43;;;34.30;;
3259;SDS011;22469;48.150;14.004;2022-12-18T06:36:15;76.13;;;31.53;;
3259;SDS011;22469;48.150;14.004;2022-12-18T06:38:43;61.63;;;29.23;;
3259;SDS011;22469;48.150;14.004;2022-12-18T06:41:11;74.83;;;34.30;;
3259;SDS011;22469;48.150;14.004;2022-12-18T06:43:42;100.67;;;35.17;;
3259;SDS011;22469;48.150;14.004;2022-12-18T06:46:10;84.30;;;33.50;;
3259;SDS011;22469;48.150;14.004;2022-12-18T06:48:39;74.93;;;32.33;;
3259;SDS011;22469;48.150;14.004;2022-12-18T06:51:06;83.27;;;32.40;;
3259;SDS011;22469;48.150;14.004;2022-12-18T06:53:33;95.73;;;37.70;;
3259;SDS011;22469;48.150;14.004;2022-12-18T06:56:01;88.57;;;32.63;;
3259;SDS011;22469;48.150;14.004;2022-12-18T06:58:36;79.00;;;32.03;;
3259;SDS011;22469;48.150;14.004;2022-12-18T07:01:05;85.60;;;33.43;;
3259;SDS011;22469;48.150;14.004;2022-12-18T07:03:36;65.67;;;30.97;;
3259;SDS011;22469;48.150;14.004;2022-12-18T07:06:15;91.73;;;35.57;;
3259;SDS011;22469;48.150;14.004;2022-12-18T07:08:46;96.20;;;35.77;;
3259;SDS011;22469;48.150;14.004;2022-12-18T07:11:14;114.40;;;39.83;;
3259;SDS011;22469;48.150;14.004;2022-12-18T07:13:42;87.70;;;33.87;;
3259;SDS011;22469;48.150;14.004;2022-12-18T07:16:17;90.93;;;35.63;;
3259;SDS011;22469;48.150;14.004;2022-12-18T07:18:51;64.80;;;31.80;;
3259;SDS011;22469;48.150;14.004;2022-12-18T07:21:21;93.13;;;37.10;;
3259;SDS011;22469;48.150;14.004;2022-12-18T07:23:49;100.40;;;40.87;;
3259;SDS011;22469;48.150;14.004;2022-12-18T07:26:17;92.00;;;39.33;;
3259;SDS011;22469;48.150;14.004;2022-12-18T07:28:47;81.87;;;33.00;;
3259;SDS011;22469;48.150;14.004;2022-12-18T07:31:16;75.57;;;34.90;;
3259;SDS011;22469;48.150;14.004;2022-12-18T07:33:47;102.93;;;37.07;;
3259;SDS011;22469;48.150;14.004;2022-12-18T07:36:16;84.03;;;35.97;;
3259;SDS011;22469;48.150;14.004;2022-12-18T07:38:44;114.67;;;40.50;;
3259;SDS011;22469;48.150;14.004;2022-12-18T07:41:14;96.13;;;40.60;;
3259;SDS011;22469;48.150;14.004;2022-12-18T07:43:45;95.33;;;37.77;;
3259;SDS011;22469;48.150;14.004;2022-12-18T07:46:12;88.30;;;33.27;;
3259;SDS011;22469;48.150;14.004;2022-12-18T07:48:42;99.27;;;35.17;;
3259;SDS011;22469;48.150;14.004;2022-12-18T07:51:14;88.93;;;37.47;;
3259;SDS011;22469;48.150;14.004;2022-12-18T07:53:43;102.83;;;34.73;;
3259;SDS011;22469;48.150;14.004;2022-12-18T07:56:11;86.87;;;36.80;;
3259;SDS011;22469;48.150;14.004;2022-12-18T07:58:56;81.80;;;37.10;;
3259;SDS011;22469;48.150;14.004;2022-12-18T08:01:25;89.00;;;37.10;;
3259;SDS011;22469;48.150;14.004;2022-12-18T08:03:52;98.07;;;37.70;;
3259;SDS011;22469;48.150;14.004;2022-12-18T08:06:19;86.97;;;35.30;;
3259;SDS011;22469;48.150;14.004;2022-12-18T08:08:53;80.13;;;33.83;;
3259;SDS011;22469;48.150;14.004;2022-12-18T08:11:22;86.07;;;35.70;;
3259;SDS011;22469;48.150;14.004;2022-12-18T08:13:55;95.00;;;38.80;;
3259;SDS011;22469;48.150;14.004;2022-12-18T08:16:24;79.70;;;35.60;;
3259;SDS011;22469;48.150;14.004;2022-12-18T08:18:51;89.67;;;40.53;;
3259;SDS011;22469;48.150;14.004;2022-12-18T08:21:21;80.63;;;38.57;;
3259;SDS011;22469;48.150;14.004;2022-12-18T08:23:55;89.00;;;35.17;;
3259;SDS011;22469;48.150;14.004;2022-12-18T08:26:28;94.70;;;35.13;;
3259;SDS011;22469;48.150;14.004;2022-12-18T08:28:58;99.37;;;37.83;;
3259;SDS011;22469;48.150;14.004;2022-12-18T08:31:26;84.83;;;33.27;;
3259;SDS011;22469;48.150;14.004;2022-12-18T08:33:56;105.87;;;39.00;;
3259;SDS011;22469;48.150;14.004;2022-12-18T08:36:23;69.67;;;30.77;;
3259;SDS011;22469;48.150;14.004;2022-12-18T08:38:52;85.03;;;34.70;;
3259;SDS011;22469;48.150;14.004;2022-12-18T08:41:20;80.07;;;31.80;;
3259;SDS011;22469;48.150;14.004;2022-12-18T08:43:47;98.13;;;40.10;;
3259;SDS011;22469;48.150;14.004;2022-12-18T08:46:35;81.87;;;36.30;;
3259;SDS011;22469;48.150;14.004;2022-12-18T08:49:08;87.80;;;36.50;;
3259;SDS011;22469;48.150;14.004;2022-12-18T08:51:37;78.93;;;36.83;;
3259;SDS011;22469;48.150;14.004;2022-12-18T08:54:05;77.37;;;34.97;;
3259;SDS011;22469;48.150;14.004;2022-12-18T08:56:33;88.00;;;35.60;;
3259;SDS011;22469;48.150;14.004;2022-12-18T08:59:00;83.70;;;36.73;;
3259;SDS011;22469;48.150;14.004;2022-12-18T09:01:28;76.13;;;35.73;;
3259;SDS011;22469;48.150;14.004;2022-12-18T09:03:55;78.07;;;32.07;;
3259;SDS011;22469;48.150;14.004;2022-12-18T09:06:22;78.90;;;36.17;;
3259;SDS011;22469;48.150;14.004;2022-12-18T09:08:50;65.63;;;33.20;;
3259;SDS011;22469;48.150;14.004;2022-12-18T09:11:24;68.03;;;33.20;;
3259;SDS011;22469;48.150;14.004;2022-12-18T09:13:54;55.70;;;31.77;;
3259;SDS011;22469;48.150;14.004;2022-12-18T09:16:22;79.23;;;34.40;;
3259;SDS011;22469;48.150;14.004;2022-12-18T09:18:58;71.70;;;31.40;;
3259;SDS011;22469;48.150;14.004;2022-12-18T09:21:27;74.97;;;35.23;;
3259;SDS011;22469;48.150;14.004;2022-12-18T09:24:01;75.50;;;33.50;;
3259;SDS011;22469;48.150;14.004;2022-12-18T09:26:28;71.17;;;32.67;;
3259;SDS011;22469;48.150;14.004;2022-12-18T09:28:55;71.87;;;31.13;;
3259;SDS011;22469;48.150;14.004;2022-12-18T09:31:23;62.70;;;31.57;;
3259;SDS011;22469;48.150;14.004;2022-12-18T09:33:51;71.37;;;32.37;;
3259;SDS011;22469;48.150;14.004;2022-12-18T09:36:18;58.27;;;34.53;;
3259;SDS011;22469;48.150;14.004;2022-12-18T09:38:47;54.33;;;28.90;;
3259;SDS011;22469;48.150;14.004;2022-12-18T09:42:00;68.77;;;31.17;;
3259;SDS011;22469;48.150;14.004;2022-12-18T09:47:13;48.67;;;22.33;;
3259;SDS011;22469;48.150;14.004;2022-12-18T09:49:50;68.90;;;30.40;;
3259;SDS011;22469;48.150;14.004;2022-12-18T09:52:35;52.50;;;25.77;;
3259;SDS011;22469;48.150;14.004;2022-12-18T09:55:11;51.73;;;25.57;;
3259;SDS011;22469;48.150;14.004;2022-12-18T09:57:55;54.13;;;29.77;;
3259;SDS011;22469;48.150;14.004;2022-12-18T10:00:32;57.77;;;27.47;;
3259;SDS011;22469;48.150;14.004;2022-12-18T10:03:00;48.00;;;27.07;;
3259;SDS011;22469;48.150;14.004;2022-12-18T10:11:24;45.50;;;23.90;;
3259;SDS011;22469;48.150;14.004;2022-12-18T10:20:16;35.60;;;24.87;;
3259;SDS011;22469;48.150;14.004;2022-12-18T10:23:04;23.80;;;16.30;;
3259;SDS011;22469;48.150;14.004;2022-12-18T10:28:32;25.07;;;12.40;;
3259;SDS011;22469;48.150;14.004;2022-12-18T10:31:04;28.37;;;17.87;;
3259;SDS011;22469;48.150;14.004;2022-12-18T10:33:34;35.90;;;19.60;;
3259;SDS011;22469;48.150;14.004;2022-12-18T10:36:01;22.23;;;13.40;;
3259;SDS011;22469;48.150;14.004;2022-12-18T10:38:30;33.23;;;18.00;;
3259;SDS011;22469;48.150;14.004;2022-12-18T10:43:31;35.93;;;19.10;;
3259;SDS011;22469;48.150;14.004;2022-12-18T10:48:55;34.30;;;22.87;;
3259;SDS011;22469;48.150;14.004;2022-12-18T10:51:31;35.93;;;17.87;;
3259;SDS011;22469;48.150;14.004;2022-12-18T10:54:05;45.70;;;27.53;;
3259;SDS011;22469;48.150;14.004;2022-12-18T10:56:49;26.70;;;16.10;;
3259;SDS011;22469;48.150;14.004;2022-12-18T10:59:17;39.00;;;21.73;;
3259;SDS011;22469;48.150;14.004;2022-12-18T11:04:16;43.33;;;24.73;;
3259;SDS011;22469;48.150;14.004;2022-12-18T11:07:08;45.97;;;25.50;;
3259;SDS011;22469;48.150;14.004;2022-12-18T11:09:37;35.50;;;21.87;;
3259;SDS011;22469;48.150;14.004;2022-12-18T11:14:53;37.93;;;21.70;;
3259;SDS011;22469;48.150;14.004;2022-12-18T11:17:30;39.27;;;25.07;;
3259;SDS011;22469;48.150;14.004;2022-12-18T11:20:06;40.40;;;25.53;;
3259;SDS011;22469;48.150;14.004;2022-12-18T11:23:03;41.97;;;24.87;;
3259;SDS011;22469;48.150;14.004;2022-12-18T11:25:38;39.93;;;21.87;;
3259;SDS011;22469;48.150;14.004;2022-12-18T11:36:52;34.23;;;24.53;;
3259;SDS011;22469;48.150;14.004;2022-12-18T11:47:44;36.97;;;21.87;;
3259;SDS011;22469;48.150;14.004;2022-12-18T11:53:11;36.53;;;23.13;;
3259;SDS011;22469;48.150;14.004;2022-12-18T11:58:30;43.23;;;23.63;;
3259;SDS011;22469;48.150;14.004;2022-12-18T12:16:00;47.40;;;24.37;;
3259;SDS011;22469;48.150;14.004;2022-12-18T12:18:48;35.17;;;21.30;;
3259;SDS011;22469;48.150;14.004;2022-12-18T12:21:39;42.60;;;24.33;;
3259;SDS011;22469;48.150;14.004;2022-12-18T12:24:36;34.03;;;20.57;;
3259;SDS011;22469;48.150;14.004;2022-12-18T12:30:39;38.27;;;24.70;;
3259;SDS011;22469;48.150;14.004;2022-12-18T12:39:53;43.30;;;23.67;;
3259;SDS011;22469;48.150;14.004;2022-12-18T12:42:29;40.87;;;25.30;;
3259;SDS011;22469;48.150;14.004;2022-12-18T12:48:40;43.70;;;24.30;;
3259;SDS011;22469;48.150;14.004;2022-12-18T12:51:32;41.30;;;24.27;;
3259;SDS011;22469;48.150;14.004;2022-12-18T12:54:08;44.37;;;24.43;;
3259;SDS011;22469;48.150;14.004;2022-12-18T13:00:01;38.27;;;24.10;;
3259;SDS011;22469;48.150;14.004;2022-12-18T13:05:26;34.70;;;22.20;;
3259;SDS011;22469;48.150;14.004;2022-12-18T13:08:24;32.00;;;21.13;;
3259;SDS011;22469;48.150;14.004;2022-12-18T13:11:01;41.97;;;25.97;;
3259;SDS011;22469;48.150;14.004;2022-12-18T13:14:12;34.73;;;21.20;;
3259;SDS011;22469;48.150;14.004;2022-12-18T13:17:14;38.93;;;24.40;;
3259;SDS011;22469;48.150;14.004;2022-12-18T13:19:51;37.43;;;23.90;;
3259;SDS011;22469;48.150;14.004;2022-12-18T13:22:46;41.47;;;26.27;;
3259;SDS011;22469;48.150;14.004;2022-12-18T13:25:29;37.10;;;23.67;;
3259;SDS011;22469;48.150;14.004;2022-12-18T13:28:08;33.00;;;21.47;;
3259;SDS011;22469;48.150;14.004;2022-12-18T13:35:51;44.50;;;27.13;;
3259;SDS011;22469;48.150;14.004;2022-12-18T13:38:38;30.47;;;22.23;;
3259;SDS011;22469;48.150;14.004;2022-12-18T13:43:39;38.73;;;23.07;;
3259;SDS011;22469;48.150;14.004;2022-12-18T13:48:57;38.77;;;23.23;;
3259;SDS011;22469;48.150;14.004;2022-12-18T13:51:44;35.73;;;23.03;;
3259;SDS011;22469;48.150;14.004;2022-12-18T13:54:33;34.93;;;23.60;;
3259;SDS011;22469;48.150;14.004;2022-12-18T13:57:03;33.90;;;20.10;;
3259;SDS011;22469;48.150;14.004;2022-12-18T13:59:39;49.20;;;30.63;;
3259;SDS011;22469;48.150;14.004;2022-12-18T14:02:13;43.47;;;26.50;;
3259;SDS011;22469;48.150;14.004;2022-12-18T14:04:49;40.53;;;26.47;;
3259;SDS011;22469;48.150;14.004;2022-12-18T14:07:24;39.77;;;23.50;;
3259;SDS011;22469;48.150;14.004;2022-12-18T14:09:59;42.47;;;23.83;;
3259;SDS011;22469;48.150;14.004;2022-12-18T14:12:48;39.90;;;25.57;;
3259;SDS011;22469;48.150;14.004;2022-12-18T14:18:01;48.47;;;27.77;;
3259;SDS011;22469;48.150;14.004;2022-12-18T14:20:29;46.13;;;23.93;;
3259;SDS011;22469;48.150;14.004;2022-12-18T14:22:59;29.57;;;20.23;;
3259;SDS011;22469;48.150;14.004;2022-12-18T14:25:28;35.93;;;22.77;;
3259;SDS011;22469;48.150;14.004;2022-12-18T14:30:38;35.53;;;24.40;;
3259;SDS011;22469;48.150;14.004;2022-12-18T14:36:03;38.07;;;21.40;;
3259;SDS011;22469;48.150;14.004;2022-12-18T14:43:41;43.70;;;24.40;;
3259;SDS011;22469;48.150;14.004;2022-12-18T14:51:50;38.37;;;21.70;;
3259;SDS011;22469;48.150;14.004;2022-12-18T14:54:21;35.27;;;18.90;;
3259;SDS011;22469;48.150;14.004;2022-12-18T15:00:05;36.97;;;21.63;;
3259;SDS011;22469;48.150;14.004;2022-12-18T15:02:41;36.10;;;20.67;;
3259;SDS011;22469;48.150;14.004;2022-12-18T15:07:47;46.77;;;23.40;;
3259;SDS011;22469;48.150;14.004;2022-12-18T15:10:22;41.23;;;23.17;;
3259;SDS011;22469;48.150;14.004;2022-12-18T15:18:00;43.07;;;22.87;;
3259;SDS011;22469;48.150;14.004;2022-12-18T15:20:54;41.03;;;25.03;;
3259;SDS011;22469;48.150;14.004;2022-12-18T15:23:24;35.47;;;20.10;;
3259;SDS011;22469;48.150;14.004;2022-12-18T15:26:03;39.50;;;20.50;;
3259;SDS011;22469;48.150;14.004;2022-12-18T15:28:47;37.67;;;20.13;;
3259;SDS011;22469;48.150;14.004;2022-12-18T15:36:19;48.23;;;24.77;;
3259;SDS011;22469;48.150;14.004;2022-12-18T15:38:53;47.73;;;24.97;;
3259;SDS011;22469;48.150;14.004;2022-12-18T15:41:32;41.77;;;25.20;;
3259;SDS011;22469;48.150;14.004;2022-12-18T15:44:01;53.30;;;32.03;;
3259;SDS011;22469;48.150;14.004;2022-12-18T15:46:30;42.47;;;25.83;;
3259;SDS011;22469;48.150;14.004;2022-12-18T15:48:58;42.87;;;26.03;;
3259;SDS011;22469;48.150;14.004;2022-12-18T15:51:34;34.70;;;22.83;;
3259;SDS011;22469;48.150;14.004;2022-12-18T15:54:04;54.47;;;30.60;;
3259;SDS011;22469;48.150;14.004;2022-12-18T15:56:39;43.70;;;21.50;;
3259;SDS011;22469;48.150;14.004;2022-12-18T15:59:25;31.73;;;18.50;;
3259;SDS011;22469;48.150;14.004;2022-12-18T16:01:52;24.77;;;15.80;;
3259;SDS011;22469;48.150;14.004;2022-12-18T16:04:20;51.07;;;28.43;;
3259;SDS011;22469;48.150;14.004;2022-12-18T16:06:48;41.67;;;24.50;;
3259;SDS011;22469;48.150;14.004;2022-12-18T16:09:38;47.17;;;24.00;;
3259;SDS011;22469;48.150;14.004;2022-12-18T16:12:06;45.40;;;25.37;;
3259;SDS011;22469;48.150;14.004;2022-12-18T16:14:44;53.07;;;28.33;;
3259;SDS011;22469;48.150;14.004;2022-12-18T16:17:12;37.97;;;24.17;;
3259;SDS011;22469;48.150;14.004;2022-12-18T16:19:42;49.43;;;26.47;;
3259;SDS011;22469;48.150;14.004;2022-12-18T16:22:30;49.03;;;29.50;;
3259;SDS011;22469;48.150;14.004;2022-12-18T16:24:57;45.43;;;24.60;;
3259;SDS011;22469;48.150;14.004;2022-12-18T16:27:25;49.57;;;28.87;;
3259;SDS011;22469;48.150;14.004;2022-12-18T16:29:52;66.00;;;35.60;;
3259;SDS011;22469;48.150;14.004;2022-12-18T16:32:20;47.27;;;24.53;;
3259;SDS011;22469;48.150;14.004;2022-12-18T16:34:49;63.30;;;31.90;;
3259;SDS011;22469;48.150;14.004;2022-12-18T16:37:16;58.30;;;30.83;;
3259;SDS011;22469;48.150;14.004;2022-12-18T16:39:43;63.63;;;32.80;;
3259;SDS011;22469;48.150;14.004;2022-12-18T16:42:14;65.63;;;35.50;;
3259;SDS011;22469;48.150;14.004;2022-12-18T16:44:46;60.00;;;36.47;;
3259;SDS011;22469;48.150;14.004;2022-12-18T16:47:15;56.97;;;30.00;;
3259;SDS011;22469;48.150;14.004;2022-12-18T16:49:43;54.73;;;30.03;;
3259;SDS011;22469;48.150;14.004;2022-12-18T16:52:11;47.43;;;28.80;;
3259;SDS011;22469;48.150;14.004;2022-12-18T16:54:40;44.23;;;25.40;;
3259;SDS011;22469;48.150;14.004;2022-12-18T16:57:08;55.60;;;30.30;;
3259;SDS011;22469;48.150;14.004;2022-12-18T16:59:40;52.77;;;28.97;;
3259;SDS011;22469;48.150;14.004;2022-12-18T17:02:15;53.53;;;30.70;;
3259;SDS011;22469;48.150;14.004;2022-12-18T17:04:49;55.87;;;30.90;;
3259;SDS011;22469;48.150;14.004;2022-12-18T17:07:19;37.37;;;21.50;;
3259;SDS011;22469;48.150;14.004;2022-12-18T17:09:46;39.50;;;19.00;;
3259;SDS011;22469;48.150;14.004;2022-12-18T17:12:16;61.40;;;30.20;;
3259;SDS011;22469;48.150;14.004;2022-12-18T17:14:44;46.80;;;27.37;;
3259;SDS011;22469;48.150;14.004;2022-12-18T17:17:12;53.20;;;28.50;;
3259;SDS011;22469;48.150;14.004;2022-12-18T17:19:49;53.00;;;25.53;;
3259;SDS011;22469;48.150;14.004;2022-12-18T17:22:18;52.20;;;28.10;;
3259;SDS011;22469;48.150;14.004;2022-12-18T17:24:47;55.03;;;29.00;;
3259;SDS011;22469;48.150;14.004;2022-12-18T17:27:14;49.60;;;26.90;;
3259;SDS011;22469;48.150;14.004;2022-12-18T17:29:41;46.50;;;24.37;;
3259;SDS011;22469;48.150;14.004;2022-12-18T17:32:14;41.37;;;21.83;;
3259;SDS011;22469;48.150;14.004;2022-12-18T17:34:42;57.00;;;32.93;;
3259;SDS011;22469;48.150;14.004;2022-12-18T17:37:10;49.00;;;26.87;;
3259;SDS011;22469;48.150;14.004;2022-12-18T17:39:38;51.37;;;29.27;;
3259;SDS011;22469;48.150;14.004;2022-12-18T17:42:06;41.03;;;22.87;;
3259;SDS011;22469;48.150;14.004;2022-12-18T17:44:41;46.13;;;26.27;;
3259;SDS011;22469;48.150;14.004;2022-12-18T17:47:10;40.83;;;24.70;;